Eliza — WDG9716 — position and weather

sailwx.info

Track history (hours):
 
Tides and Currents Weather Stations Pressure Air Temp Water Temp Dewpoint Dewpoint Depression Visibility Wind Speed Wind Dir Waves Ship Positions

Eliza

Owner: Kirby Offshore Marine, LLC, Staten Island, NY. More information available from US FCC via Universal Licensing System and Coast Guard Vessel Documentation Center.

Last reported at 2017-Nov-01 20:56 UTC. Time now 2017-Dec-12 02:37 UTC.
Position N 27°56' W 082°26'.
Warning: this ship's position is 40 days out of date.

Length 173 m; draft 6 m.

Type: . MMSI: 366672810.

Date/timePositionNaut miles runAvg speedWind from/ knotsBaromVisibWave heightAir tempDewpointWater temp
2017-Nov-01 20:56N 27°56' W 082°26'0 0.0
2017-Nov-01 20:29N 27°56' W 082°26'0 0.0
2017-Nov-01 19:59N 27°56' W 082°26'0 0.0
2017-Nov-01 19:29N 27°56' W 082°26'0 0.0
2017-Nov-01 18:58N 27°56' W 082°26'0 0.0
2017-Nov-01 18:28N 27°56' W 082°26'  
2017-Oct-28 02:44N 29°23' W 094°49'410.2
2017-Oct-28 02:23N 29°26' W 094°50'410.3
2017-Oct-28 02:00N 29°30' W 094°52'510.1
2017-Oct-28 01:30N 29°34' W 094°55'5 9.8
2017-Oct-28 01:00N 29°38' W 094°58'4 9.0
2017-Oct-28 00:30N 29°42' W 095°01'4 7.4
2017-Oct-28 00:00N 29°45' W 095°04'2 0.1
2017-Oct-27 04:05N 29°45' W 095°06'0 0.6
2017-Oct-27 03:55N 29°45' W 095°06'2 4.0
2017-Oct-27 03:30N 29°46' W 095°04'4 7.6
2017-Oct-27 03:00N 29°43' W 095°01'4 8.3
2017-Oct-27 02:30N 29°40' W 094°58'5 9.2
2017-Oct-27 02:00N 29°35' W 094°56'5 9.2
2017-Oct-27 01:30N 29°32' W 094°53'  
2017-Oct-24 08:49N 29°21' W 094°45'  
Track history (hours):
 
Tides and Currents Weather Stations Pressure Air Temp Water Temp Dewpoint Dewpoint Depression Visibility Wind Speed Wind Dir Waves Ship Positions

Eliza

Owner: Kirby Offshore Marine, LLC, Staten Island, NY. More information available from US FCC via Universal Licensing System and Coast Guard Vessel Documentation Center.

Last reported at 2017-Nov-01 20:56 UTC. Time now 2017-Dec-12 02:37 UTC.
Position N 27°56' W 082°26'.
Warning: this ship's position is 40 days out of date.

Length 173 m; draft 6 m.

Type: . MMSI: 366672810.

Date/timePositionNaut miles runAvg speedWind from/ knotsBaromVisibWave heightAir tempDewpointWater temp
2017-Nov-01 20:56N 27°56' W 082°26'0 0.0
2017-Nov-01 20:29N 27°56' W 082°26'0 0.0
2017-Nov-01 19:59N 27°56' W 082°26'0 0.0
2017-Nov-01 19:29N 27°56' W 082°26'0 0.0
2017-Nov-01 18:58N 27°56' W 082°26'0 0.0
2017-Nov-01 18:28N 27°56' W 082°26'  
2017-Oct-28 02:44N 29°23' W 094°49'410.2
2017-Oct-28 02:23N 29°26' W 094°50'410.3
2017-Oct-28 02:00N 29°30' W 094°52'510.1
2017-Oct-28 01:30N 29°34' W 094°55'5 9.8
2017-Oct-28 01:00N 29°38' W 094°58'4 9.0
2017-Oct-28 00:30N 29°42' W 095°01'4 7.4
2017-Oct-28 00:00N 29°45' W 095°04'2 0.1
2017-Oct-27 04:05N 29°45' W 095°06'0 0.6
2017-Oct-27 03:55N 29°45' W 095°06'2 4.0
2017-Oct-27 03:30N 29°46' W 095°04'4 7.6
2017-Oct-27 03:00N 29°43' W 095°01'4 8.3
2017-Oct-27 02:30N 29°40' W 094°58'5 9.2
2017-Oct-27 02:00N 29°35' W 094°56'5 9.2
2017-Oct-27 01:30N 29°32' W 094°53'  
2017-Oct-24 08:49N 29°21' W 094°45'  

Dump ship's entire track history